createdAt,value
2018-12-24T00:01:16.868Z,13.43
2018-12-24T00:06:15.044Z,9.13
2018-12-24T00:11:13.602Z,20.37
2018-12-24T00:16:03.081Z,9.53
2018-12-24T00:20:53.915Z,7.73
2018-12-24T00:25:44.958Z,9.87
2018-12-24T00:31:00.732Z,10.43
2018-12-24T00:35:53.353Z,8.87
2018-12-24T00:40:42.947Z,8.37
2018-12-24T00:45:33.603Z,19.80
2018-12-24T00:50:23.180Z,10.73
2018-12-24T00:55:12.578Z,9.37
2018-12-24T01:00:07.466Z,10.40
2018-12-24T01:04:57.647Z,11.97
2018-12-24T01:09:47.128Z,11.70
2018-12-24T01:14:39.501Z,13.23
2018-12-24T01:19:30.145Z,10.60
2018-12-24T01:24:20.091Z,6.43
2018-12-24T01:29:12.305Z,6.60
2018-12-24T01:34:02.035Z,7.50
2018-12-24T01:38:51.642Z,11.10
2018-12-24T01:43:43.619Z,10.17
2018-12-24T01:48:33.370Z,9.40
2018-12-24T01:53:27.568Z,8.43
2018-12-24T01:58:20.388Z,7.97
2018-12-24T02:03:10.585Z,7.77
2018-12-24T02:08:04.303Z,7.30
2018-12-24T02:12:57.671Z,6.13
2018-12-24T02:17:47.233Z,7.03
2018-12-24T02:23:05.072Z,5.37
2018-12-24T02:27:59.381Z,5.53
2018-12-24T02:32:50.575Z,6.00
2018-12-24T02:37:42.589Z,6.63
2018-12-24T02:42:35.048Z,5.87
2018-12-24T02:47:24.688Z,5.87
2018-12-24T02:52:13.669Z,11.37
2018-12-24T02:57:03.270Z,9.03
2018-12-24T03:01:52.970Z,8.63
2018-12-24T03:06:44.396Z,9.30
2018-12-24T03:11:35.660Z,8.30
2018-12-24T03:16:26.431Z,9.23
2018-12-24T03:21:16.674Z,9.80
2018-12-24T03:26:06.222Z,12.53
2018-12-24T03:30:56.193Z,22.93
2018-12-24T03:35:45.809Z,11.83
2018-12-24T03:40:35.531Z,9.37
2018-12-24T03:45:25.279Z,14.03
2018-12-24T03:50:16.072Z,12.73
2018-12-24T03:55:07.450Z,8.50
2018-12-24T03:59:58.197Z,9.50
2018-12-24T04:04:48.564Z,10.17
2018-12-24T04:09:37.914Z,9.40
2018-12-24T04:14:27.241Z,13.83
2018-12-24T04:19:18.027Z,14.80
2018-12-24T04:24:09.582Z,16.87
2018-12-24T04:28:59.446Z,16.73
2018-12-24T04:33:50.378Z,14.73
2018-12-24T04:38:40.358Z,16.93
2018-12-24T04:43:34.339Z,14.73
2018-12-24T04:48:24.368Z,15.97
2018-12-24T04:53:13.912Z,13.50
2018-12-24T04:58:09.479Z,10.43
2018-12-24T05:02:59.562Z,14.20
2018-12-24T05:07:49.699Z,11.77
2018-12-24T05:12:39.127Z,12.73
2018-12-24T05:17:30.444Z,21.23
2018-12-24T05:22:22.252Z,15.80
2018-12-24T05:27:14.315Z,23.57
2018-12-24T05:32:04.557Z,24.33
2018-12-24T05:36:54.686Z,34.47
2018-12-24T05:41:50.044Z,25.97
2018-12-24T05:46:40.726Z,20.10
2018-12-24T05:51:30.303Z,16.47
2018-12-24T05:56:19.936Z,29.23
2018-12-24T06:01:12.032Z,29.93
2018-12-24T06:06:03.295Z,23.07
2018-12-24T06:10:52.750Z,22.40
2018-12-24T06:15:49.059Z,27.53
2018-12-24T06:20:46.879Z,25.87
2018-12-24T06:25:36.783Z,15.00
2018-12-24T06:30:28.941Z,18.17
2018-12-24T06:35:22.894Z,21.97
2018-12-24T06:40:12.403Z,20.33
2018-12-24T06:45:02.020Z,18.13
2018-12-24T06:49:51.520Z,38.40
2018-12-24T06:54:46.567Z,20.30
2018-12-24T06:59:37.432Z,21.80
2018-12-24T07:04:29.654Z,25.33
2018-12-24T07:09:19.497Z,28.70
2018-12-24T07:14:15.364Z,27.00
2018-12-24T07:19:00.403Z,60.37
2018-12-24T07:23:50.530Z,68.73
2018-12-24T07:28:41.599Z,67.33
2018-12-24T07:33:37.036Z,72.03
2018-12-24T07:38:26.684Z,66.73
2018-12-24T07:43:17.851Z,73.23
2018-12-24T07:48:09.555Z,61.33
2018-12-24T07:53:07.515Z,48.10
2018-12-24T07:57:57.058Z,34.00
2018-12-24T08:02:46.793Z,35.93
2018-12-24T08:07:39.562Z,37.10
2018-12-24T08:12:30.093Z,49.93
2018-12-24T08:17:21.230Z,41.83
2018-12-24T08:22:12.344Z,35.93
2018-12-24T08:27:02.223Z,35.33
2018-12-24T08:31:52.031Z,41.70
2018-12-24T08:36:44.787Z,48.87
2018-12-24T08:41:39.698Z,36.37
2018-12-24T08:46:30.549Z,50.83
2018-12-24T08:51:19.886Z,16.00
2018-12-24T08:56:32.255Z,9.77
2018-12-24T09:01:26.155Z,16.07
2018-12-24T09:06:16.547Z,13.23
2018-12-24T09:11:06.162Z,9.60
2018-12-24T09:15:56.820Z,8.17
2018-12-24T09:20:52.573Z,11.17
2018-12-24T09:25:38.765Z,10.63
2018-12-24T09:30:28.213Z,11.37
2018-12-24T09:35:18.108Z,17.30
2018-12-24T09:40:14.339Z,16.37
2018-12-24T09:45:08.056Z,28.13
2018-12-24T09:49:58.439Z,16.27
2018-12-24T09:54:52.436Z,15.97
2018-12-24T09:59:56.767Z,9.60
2018-12-24T10:04:55.095Z,20.40
2018-12-24T10:09:48.042Z,19.33
2018-12-24T10:14:38.257Z,11.70
2018-12-24T10:19:41.558Z,12.53
2018-12-24T10:24:32.935Z,12.27
2018-12-24T10:29:22.698Z,10.83
2018-12-24T10:34:12.249Z,13.53
2018-12-24T10:39:02.003Z,11.43
2018-12-24T10:43:52.118Z,16.83
2018-12-24T10:48:42.507Z,11.63
2018-12-24T10:53:35.730Z,35.87
2018-12-24T10:58:26.817Z,22.60
2018-12-24T11:03:17.146Z,19.87
2018-12-24T11:08:09.958Z,18.50
2018-12-24T11:13:02.136Z,17.07
2018-12-24T11:17:52.766Z,11.17
2018-12-24T11:22:42.492Z,7.93
2018-12-24T11:27:32.454Z,11.20
2018-12-24T11:32:22.242Z,7.70
2018-12-24T11:37:12.468Z,14.07
2018-12-24T11:42:02.856Z,23.00
2018-12-24T11:46:53.600Z,7.60
2018-12-24T11:51:46.948Z,10.57
2018-12-24T11:56:37.146Z,8.80
2018-12-24T12:01:30.642Z,9.10
2018-12-24T12:06:20.219Z,6.93
2018-12-24T12:11:10.167Z,6.93
2018-12-24T12:15:59.955Z,9.80
2018-12-24T12:20:52.713Z,9.67
2018-12-24T12:25:43.057Z,7.77
2018-12-24T12:30:32.655Z,9.80
2018-12-24T12:35:24.071Z,8.27
2018-12-24T12:40:20.622Z,12.00
2018-12-24T12:45:13.899Z,6.67
2018-12-24T12:50:04.997Z,6.87
2018-12-24T12:54:56.707Z,6.13
2018-12-24T12:59:52.442Z,8.00
2018-12-24T13:04:45.379Z,7.27
2018-12-24T13:09:37.714Z,11.50
2018-12-24T13:20:25.015Z,8.93
2018-12-24T13:25:41.714Z,10.10
2018-12-24T13:30:59.734Z,8.90
2018-12-24T13:36:25.045Z,9.67
2018-12-24T13:41:52.002Z,11.57
2018-12-24T13:47:15.141Z,8.40
2018-12-24T13:52:38.400Z,9.10
2018-12-24T13:58:00.134Z,9.93
2018-12-24T14:03:24.896Z,11.13
2018-12-24T14:08:48.811Z,18.33
2018-12-24T14:14:12.014Z,12.00
2018-12-24T14:20:02.087Z,11.53
2018-12-24T14:24:54.399Z,11.03
2018-12-24T14:29:47.388Z,8.63
2018-12-24T14:34:37.149Z,10.10
2018-12-24T14:39:37.083Z,12.00
2018-12-24T14:44:27.888Z,9.97
2018-12-24T14:49:37.944Z,11.50
2018-12-24T14:54:35.294Z,12.77
2018-12-24T14:59:33.241Z,12.43
2018-12-24T15:04:24.266Z,19.93
2018-12-24T15:10:04.576Z,23.57
2018-12-24T15:15:29.392Z,29.37
2018-12-24T15:20:45.261Z,16.13
2018-12-24T15:25:51.284Z,14.93
2018-12-24T15:31:20.419Z,18.03
2018-12-24T15:36:47.409Z,21.47
2018-12-24T15:42:17.583Z,19.13
2018-12-24T15:47:32.097Z,21.37
2018-12-24T15:53:02.096Z,25.77
2018-12-24T15:58:19.123Z,22.27
2018-12-24T16:03:44.859Z,19.63
2018-12-24T16:09:01.575Z,18.20
2018-12-24T16:14:16.037Z,20.90
2018-12-24T16:19:26.804Z,19.00
2018-12-24T16:24:37.135Z,27.93
2018-12-24T16:29:51.254Z,17.47
2018-12-24T16:35:04.036Z,18.10
2018-12-24T16:45:23.718Z,22.10
2018-12-24T16:50:15.551Z,16.80
2018-12-24T16:55:07.327Z,14.80
2018-12-24T16:59:57.475Z,13.43
2018-12-24T17:04:47.471Z,10.80
2018-12-24T17:09:39.839Z,14.93
2018-12-24T17:14:30.554Z,17.10
2018-12-24T17:19:20.879Z,17.40
2018-12-24T17:24:18.266Z,77.93
2018-12-24T17:29:07.915Z,31.30
2018-12-24T17:33:57.224Z,11.47
2018-12-24T17:38:47.418Z,24.03
2018-12-24T17:43:37.522Z,11.33
2018-12-24T17:48:27.065Z,46.37
2018-12-24T17:53:18.154Z,58.60
2018-12-24T17:58:08.358Z,5.10
2018-12-24T18:02:58.336Z,2.87
2018-12-24T18:07:48.198Z,2.77
2018-12-24T18:12:39.875Z,3.13
2018-12-24T18:17:30.709Z,6.77
2018-12-24T18:22:21.076Z,28.83
2018-12-24T18:33:23.767Z,2.23
2018-12-24T18:38:13.589Z,2.43
2018-12-24T18:43:03.859Z,4.17
2018-12-24T18:47:53.301Z,3.10
2018-12-24T18:52:42.961Z,2.53
2018-12-24T18:57:32.463Z,2.50
2018-12-24T19:02:22.278Z,2.63
2018-12-24T19:07:14.628Z,2.33
2018-12-24T19:12:05.319Z,3.23
2018-12-24T19:16:55.760Z,8.90
2018-12-24T19:21:44.664Z,1.83
2018-12-24T19:26:36.879Z,1.53
2018-12-24T19:31:26.454Z,2.37
2018-12-24T19:36:15.931Z,1.63
2018-12-24T19:41:05.878Z,1.77
2018-12-24T19:46:14.303Z,1.40
2018-12-24T19:51:05.541Z,1.80
2018-12-24T20:02:37.740Z,1.37
2018-12-24T20:07:46.236Z,1.60
2018-12-24T20:12:37.730Z,0.80
2018-12-24T20:18:04.007Z,0.73
2018-12-24T20:30:25.963Z,2.13
2018-12-24T20:48:20.551Z,1.17
2018-12-24T20:53:55.089Z,1.20
2018-12-24T20:59:52.341Z,1.20
2018-12-24T21:05:22.554Z,1.80
2018-12-24T21:11:24.191Z,2.03
2018-12-24T21:17:09.082Z,1.60
2018-12-24T21:22:50.820Z,1.67
2018-12-24T21:28:13.640Z,3.07
2018-12-24T21:33:30.958Z,2.93
2018-12-24T21:38:43.628Z,3.03
2018-12-24T21:43:35.113Z,2.33
2018-12-24T21:48:24.968Z,3.33
2018-12-24T21:53:14.694Z,2.80
2018-12-24T21:58:04.219Z,3.20
2018-12-24T22:03:04.567Z,3.20
2018-12-24T22:07:55.084Z,2.80
2018-12-24T22:12:44.956Z,2.90
2018-12-24T22:17:40.287Z,3.50
2018-12-24T22:22:37.525Z,2.77
2018-12-24T22:27:27.590Z,2.77
2018-12-24T22:32:24.971Z,3.37
2018-12-24T22:37:20.890Z,3.77
2018-12-24T22:42:27.111Z,3.57
2018-12-24T22:47:24.442Z,5.13
2018-12-24T22:52:17.487Z,5.77
2018-12-24T22:57:26.317Z,4.70
2018-12-24T23:02:10.931Z,5.93
2018-12-24T23:07:01.520Z,5.63
2018-12-24T23:11:52.027Z,8.43
2018-12-24T23:16:43.142Z,9.63
2018-12-24T23:21:36.523Z,8.13
2018-12-24T23:26:27.708Z,7.87
2018-12-24T23:31:23.768Z,6.03
2018-12-24T23:36:42.071Z,10.30
2018-12-24T23:42:08.598Z,8.77
2018-12-24T23:47:05.328Z,11.23
2018-12-24T23:52:03.107Z,10.47
2018-12-24T23:56:59.369Z,10.97
